sensor_id;sensor_type;location;lat;lon;timestamp;P1;durP1;ratioP1;P2;durP2;ratioP2
75342;SDS011;63936;51.006;13.764;2022-10-01T00:00:02;10;;;6;;
75342;SDS011;63936;51.006;13.764;2022-10-01T00:02:03;9;;;6;;
75342;SDS011;63936;51.006;13.764;2022-10-01T00:04:03;8;;;5;;
75342;SDS011;63936;51.006;13.764;2022-10-01T00:06:04;9;;;5;;
75342;SDS011;63936;51.006;13.764;2022-10-01T00:08:04;10;;;6;;
75342;SDS011;63936;51.006;13.764;2022-10-01T00:10:04;10;;;6;;
75342;SDS011;63936;51.006;13.764;2022-10-01T00:12:03;9;;;5;;
75342;SDS011;63936;51.006;13.764;2022-10-01T00:14:02;10;;;5;;
75342;SDS011;63936;51.006;13.764;2022-10-01T00:16:03;11;;;6;;
75342;SDS011;63936;51.006;13.764;2022-10-01T00:18:02;10;;;5;;
75342;SDS011;63936;51.006;13.764;2022-10-01T00:20:04;10;;;5;;
75342;SDS011;63936;51.006;13.764;2022-10-01T00:22:02;9;;;4;;
75342;SDS011;63936;51.006;13.764;2022-10-01T00:24:03;9;;;5;;
75342;SDS011;63936;51.006;13.764;2022-10-01T00:26:10;9;;;5;;
75342;SDS011;63936;51.006;13.764;2022-10-01T00:28:02;8;;;5;;
75342;SDS011;63936;51.006;13.764;2022-10-01T00:30:03;9;;;5;;
75342;SDS011;63936;51.006;13.764;2022-10-01T00:32:03;8;;;4;;
75342;SDS011;63936;51.006;13.764;2022-10-01T00:34:02;9;;;4;;
75342;SDS011;63936;51.006;13.764;2022-10-01T00:36:04;9;;;5;;
75342;SDS011;63936;51.006;13.764;2022-10-01T00:38:09;9;;;4;;
75342;SDS011;63936;51.006;13.764;2022-10-01T00:40:09;8;;;4;;
75342;SDS011;63936;51.006;13.764;2022-10-01T00:42:03;8;;;4;;
75342;SDS011;63936;51.006;13.764;2022-10-01T00:44:23;8;;;4;;
75342;SDS011;63936;51.006;13.764;2022-10-01T00:46:03;8;;;4;;
75342;SDS011;63936;51.006;13.764;2022-10-01T00:48:02;9;;;5;;
75342;SDS011;63936;51.006;13.764;2022-10-01T00:50:04;10;;;5;;
75342;SDS011;63936;51.006;13.764;2022-10-01T00:52:03;8;;;4;;
75342;SDS011;63936;51.006;13.764;2022-10-01T00:54:04;8;;;5;;
75342;SDS011;63936;51.006;13.764;2022-10-01T00:56:02;8;;;4;;
75342;SDS011;63936;51.006;13.764;2022-10-01T00:58:02;7;;;4;;
75342;SDS011;63936;51.006;13.764;2022-10-01T01:00:03;8;;;4;;
75342;SDS011;63936;51.006;13.764;2022-10-01T01:02:01;8;;;4;;
75342;SDS011;63936;51.006;13.764;2022-10-01T01:04:01;8;;;5;;
75342;SDS011;63936;51.006;13.764;2022-10-01T01:06:01;8;;;4;;
75342;SDS011;63936;51.006;13.764;2022-10-01T01:08:01;7;;;4;;
75342;SDS011;63936;51.006;13.764;2022-10-01T01:10:02;8;;;4;;
75342;SDS011;63936;51.006;13.764;2022-10-01T01:12:04;10;;;5;;
75342;SDS011;63936;51.006;13.764;2022-10-01T01:14:02;12;;;5;;
75342;SDS011;63936;51.006;13.764;2022-10-01T01:16:03;11;;;5;;
75342;SDS011;63936;51.006;13.764;2022-10-01T01:18:03;9;;;5;;
75342;SDS011;63936;51.006;13.764;2022-10-01T01:20:07;6;;;3;;
75342;SDS011;63936;51.006;13.764;2022-10-01T01:22:02;7;;;4;;
75342;SDS011;63936;51.006;13.764;2022-10-01T01:24:03;8;;;4;;
75342;SDS011;63936;51.006;13.764;2022-10-01T01:26:04;8;;;4;;
75342;SDS011;63936;51.006;13.764;2022-10-01T01:28:03;8;;;4;;
75342;SDS011;63936;51.006;13.764;2022-10-01T01:30:03;9;;;5;;
75342;SDS011;63936;51.006;13.764;2022-10-01T01:32:02;8;;;4;;
75342;SDS011;63936;51.006;13.764;2022-10-01T01:34:02;7;;;4;;
75342;SDS011;63936;51.006;13.764;2022-10-01T01:36:02;10;;;4;;
75342;SDS011;63936;51.006;13.764;2022-10-01T01:38:02;8;;;4;;
75342;SDS011;63936;51.006;13.764;2022-10-01T01:40:02;8;;;4;;
75342;SDS011;63936;51.006;13.764;2022-10-01T01:42:03;8;;;5;;
75342;SDS011;63936;51.006;13.764;2022-10-01T01:44:02;6;;;3;;
75342;SDS011;63936;51.006;13.764;2022-10-01T01:46:01;6;;;3;;
75342;SDS011;63936;51.006;13.764;2022-10-01T01:48:01;8;;;4;;
75342;SDS011;63936;51.006;13.764;2022-10-01T01:50:01;7;;;4;;
75342;SDS011;63936;51.006;13.764;2022-10-01T01:52:02;8;;;4;;
75342;SDS011;63936;51.006;13.764;2022-10-01T01:54:01;8;;;4;;
75342;SDS011;63936;51.006;13.764;2022-10-01T01:56:01;6;;;3;;
75342;SDS011;63936;51.006;13.764;2022-10-01T01:58:01;7;;;4;;
75342;SDS011;63936;51.006;13.764;2022-10-01T02:00:02;7;;;4;;
75342;SDS011;63936;51.006;13.764;2022-10-01T02:02:01;8;;;4;;
75342;SDS011;63936;51.006;13.764;2022-10-01T02:04:02;9;;;4;;
75342;SDS011;63936;51.006;13.764;2022-10-01T02:06:05;8;;;4;;
75342;SDS011;63936;51.006;13.764;2022-10-01T02:08:10;8;;;4;;
75342;SDS011;63936;51.006;13.764;2022-10-01T02:10:07;7;;;4;;
75342;SDS011;63936;51.006;13.764;2022-10-01T02:12:06;7;;;4;;
75342;SDS011;63936;51.006;13.764;2022-10-01T02:14:03;7;;;4;;
75342;SDS011;63936;51.006;13.764;2022-10-01T02:16:03;8;;;5;;
75342;SDS011;63936;51.006;13.764;2022-10-01T02:18:02;8;;;4;;
75342;SDS011;63936;51.006;13.764;2022-10-01T02:20:04;9;;;5;;
75342;SDS011;63936;51.006;13.764;2022-10-01T02:22:02;10;;;5;;
75342;SDS011;63936;51.006;13.764;2022-10-01T02:24:05;7;;;3;;
75342;SDS011;63936;51.006;13.764;2022-10-01T02:26:03;7;;;4;;
75342;SDS011;63936;51.006;13.764;2022-10-01T02:28:02;7;;;4;;
75342;SDS011;63936;51.006;13.764;2022-10-01T02:30:03;7;;;4;;
75342;SDS011;63936;51.006;13.764;2022-10-01T02:32:01;7;;;4;;
75342;SDS011;63936;51.006;13.764;2022-10-01T02:34:02;9;;;4;;
75342;SDS011;63936;51.006;13.764;2022-10-01T02:36:02;8;;;4;;
75342;SDS011;63936;51.006;13.764;2022-10-01T02:38:03;8;;;4;;
75342;SDS011;63936;51.006;13.764;2022-10-01T02:40:02;10;;;5;;
75342;SDS011;63936;51.006;13.764;2022-10-01T02:42:01;10;;;5;;
75342;SDS011;63936;51.006;13.764;2022-10-01T02:44:02;8;;;4;;
75342;SDS011;63936;51.006;13.764;2022-10-01T02:46:02;7;;;4;;
75342;SDS011;63936;51.006;13.764;2022-10-01T02:48:02;7;;;4;;
75342;SDS011;63936;51.006;13.764;2022-10-01T02:50:02;8;;;4;;
75342;SDS011;63936;51.006;13.764;2022-10-01T02:52:04;8;;;4;;
75342;SDS011;63936;51.006;13.764;2022-10-01T02:54:05;8;;;4;;
75342;SDS011;63936;51.006;13.764;2022-10-01T02:56:01;12;;;5;;
75342;SDS011;63936;51.006;13.764;2022-10-01T02:58:01;10;;;5;;
75342;SDS011;63936;51.006;13.764;2022-10-01T03:00:03;9;;;4;;
75342;SDS011;63936;51.006;13.764;2022-10-01T03:02:02;9;;;5;;
75342;SDS011;63936;51.006;13.764;2022-10-01T03:04:02;9;;;4;;
75342;SDS011;63936;51.006;13.764;2022-10-01T03:06:03;9;;;4;;
75342;SDS011;63936;51.006;13.764;2022-10-01T03:08:03;8;;;5;;
75342;SDS011;63936;51.006;13.764;2022-10-01T03:10:05;8;;;5;;
75342;SDS011;63936;51.006;13.764;2022-10-01T03:12:02;8;;;5;;
75342;SDS011;63936;51.006;13.764;2022-10-01T03:14:02;8;;;5;;
75342;SDS011;63936;51.006;13.764;2022-10-01T03:16:01;8;;;5;;
75342;SDS011;63936;51.006;13.764;2022-10-01T03:18:01;8;;;5;;
75342;SDS011;63936;51.006;13.764;2022-10-01T03:20:02;10;;;4;;
75342;SDS011;63936;51.006;13.764;2022-10-01T03:22:01;11;;;5;;
75342;SDS011;63936;51.006;13.764;2022-10-01T03:24:02;9;;;5;;
75342;SDS011;63936;51.006;13.764;2022-10-01T03:26:02;9;;;5;;
75342;SDS011;63936;51.006;13.764;2022-10-01T03:28:01;8;;;4;;
75342;SDS011;63936;51.006;13.764;2022-10-01T03:30:01;8;;;4;;
75342;SDS011;63936;51.006;13.764;2022-10-01T03:32:01;8;;;4;;
75342;SDS011;63936;51.006;13.764;2022-10-01T03:34:01;8;;;4;;
75342;SDS011;63936;51.006;13.764;2022-10-01T03:36:02;8;;;4;;
75342;SDS011;63936;51.006;13.764;2022-10-01T03:38:01;8;;;4;;
75342;SDS011;63936;51.006;13.764;2022-10-01T03:40:02;11;;;5;;
75342;SDS011;63936;51.006;13.764;2022-10-01T03:42:02;10;;;5;;
75342;SDS011;63936;51.006;13.764;2022-10-01T03:44:01;8;;;4;;
75342;SDS011;63936;51.006;13.764;2022-10-01T03:46:01;8;;;4;;
75342;SDS011;63936;51.006;13.764;2022-10-01T03:48:01;8;;;5;;
75342;SDS011;63936;51.006;13.764;2022-10-01T03:50:02;9;;;4;;
75342;SDS011;63936;51.006;13.764;2022-10-01T03:52:01;10;;;4;;
75342;SDS011;63936;51.006;13.764;2022-10-01T03:54:01;8;;;5;;
75342;SDS011;63936;51.006;13.764;2022-10-01T03:56:01;8;;;5;;
75342;SDS011;63936;51.006;13.764;2022-10-01T03:58:01;8;;;5;;
75342;SDS011;63936;51.006;13.764;2022-10-01T04:00:02;9;;;5;;
75342;SDS011;63936;51.006;13.764;2022-10-01T04:02:01;10;;;6;;
75342;SDS011;63936;51.006;13.764;2022-10-01T04:04:01;11;;;6;;
75342;SDS011;63936;51.006;13.764;2022-10-01T04:06:02;10;;;6;;
75342;SDS011;63936;51.006;13.764;2022-10-01T04:08:01;14;;;5;;
75342;SDS011;63936;51.006;13.764;2022-10-01T04:10:01;12;;;6;;
75342;SDS011;63936;51.006;13.764;2022-10-01T04:12:01;10;;;5;;
75342;SDS011;63936;51.006;13.764;2022-10-01T04:14:01;10;;;6;;
75342;SDS011;63936;51.006;13.764;2022-10-01T04:16:01;9;;;6;;
75342;SDS011;63936;51.006;13.764;2022-10-01T04:18:01;13;;;6;;
75342;SDS011;63936;51.006;13.764;2022-10-01T04:20:02;13;;;6;;
75342;SDS011;63936;51.006;13.764;2022-10-01T04:22:02;7;;;4;;
75342;SDS011;63936;51.006;13.764;2022-10-01T04:24:02;7;;;4;;
75342;SDS011;63936;51.006;13.764;2022-10-01T04:26:01;8;;;5;;
75342;SDS011;63936;51.006;13.764;2022-10-01T04:28:02;9;;;5;;
75342;SDS011;63936;51.006;13.764;2022-10-01T04:30:02;9;;;5;;
75342;SDS011;63936;51.006;13.764;2022-10-01T04:32:02;11;;;5;;
75342;SDS011;63936;51.006;13.764;2022-10-01T04:34:03;12;;;6;;
75342;SDS011;63936;51.006;13.764;2022-10-01T04:36:02;10;;;6;;
75342;SDS011;63936;51.006;13.764;2022-10-01T04:38:03;9;;;6;;
75342;SDS011;63936;51.006;13.764;2022-10-01T04:40:02;9;;;6;;
75342;SDS011;63936;51.006;13.764;2022-10-01T04:42:02;10;;;6;;
75342;SDS011;63936;51.006;13.764;2022-10-01T04:44:01;10;;;5;;
75342;SDS011;63936;51.006;13.764;2022-10-01T04:46:02;10;;;5;;
75342;SDS011;63936;51.006;13.764;2022-10-01T04:48:02;9;;;5;;
75342;SDS011;63936;51.006;13.764;2022-10-01T04:50:04;10;;;5;;
75342;SDS011;63936;51.006;13.764;2022-10-01T04:52:02;10;;;6;;
75342;SDS011;63936;51.006;13.764;2022-10-01T04:54:02;11;;;6;;
75342;SDS011;63936;51.006;13.764;2022-10-01T04:56:02;11;;;6;;
75342;SDS011;63936;51.006;13.764;2022-10-01T04:58:01;12;;;6;;
75342;SDS011;63936;51.006;13.764;2022-10-01T05:00:05;11;;;6;;
75342;SDS011;63936;51.006;13.764;2022-10-01T05:02:02;10;;;6;;
75342;SDS011;63936;51.006;13.764;2022-10-01T05:04:01;10;;;6;;
75342;SDS011;63936;51.006;13.764;2022-10-01T05:06:02;11;;;6;;
75342;SDS011;63936;51.006;13.764;2022-10-01T05:08:02;10;;;6;;
75342;SDS011;63936;51.006;13.764;2022-10-01T05:10:03;10;;;6;;
75342;SDS011;63936;51.006;13.764;2022-10-01T05:12:01;10;;;6;;
75342;SDS011;63936;51.006;13.764;2022-10-01T05:14:01;12;;;6;;
75342;SDS011;63936;51.006;13.764;2022-10-01T05:16:02;12;;;6;;
75342;SDS011;63936;51.006;13.764;2022-10-01T05:18:02;12;;;5;;
75342;SDS011;63936;51.006;13.764;2022-10-01T05:20:02;11;;;6;;
75342;SDS011;63936;51.006;13.764;2022-10-01T05:22:02;11;;;6;;
75342;SDS011;63936;51.006;13.764;2022-10-01T05:24:01;11;;;6;;
75342;SDS011;63936;51.006;13.764;2022-10-01T05:26:02;10;;;6;;
75342;SDS011;63936;51.006;13.764;2022-10-01T05:28:01;9;;;6;;
75342;SDS011;63936;51.006;13.764;2022-10-01T05:30:03;9;;;6;;
75342;SDS011;63936;51.006;13.764;2022-10-01T05:32:02;9;;;6;;
75342;SDS011;63936;51.006;13.764;2022-10-01T05:34:01;11;;;6;;
75342;SDS011;63936;51.006;13.764;2022-10-01T05:36:02;11;;;6;;
75342;SDS011;63936;51.006;13.764;2022-10-01T05:38:03;11;;;7;;
75342;SDS011;63936;51.006;13.764;2022-10-01T05:40:03;11;;;7;;
75342;SDS011;63936;51.006;13.764;2022-10-01T05:42:02;10;;;6;;
75342;SDS011;63936;51.006;13.764;2022-10-01T05:44:01;10;;;6;;
75342;SDS011;63936;51.006;13.764;2022-10-01T05:46:02;10;;;6;;
75342;SDS011;63936;51.006;13.764;2022-10-01T05:48:03;10;;;7;;
75342;SDS011;63936;51.006;13.764;2022-10-01T05:50:03;10;;;7;;
75342;SDS011;63936;51.006;13.764;2022-10-01T05:52:02;10;;;7;;
75342;SDS011;63936;51.006;13.764;2022-10-01T05:54:01;12;;;7;;
75342;SDS011;63936;51.006;13.764;2022-10-01T05:56:03;13;;;7;;
75342;SDS011;63936;51.006;13.764;2022-10-01T05:58:02;11;;;7;;
75342;SDS011;63936;51.006;13.764;2022-10-01T06:00:02;11;;;7;;
75342;SDS011;63936;51.006;13.764;2022-10-01T06:02:02;11;;;7;;
75342;SDS011;63936;51.006;13.764;2022-10-01T06:04:03;10;;;7;;
75342;SDS011;63936;51.006;13.764;2022-10-01T06:06:03;10;;;6;;
75342;SDS011;63936;51.006;13.764;2022-10-01T06:08:03;11;;;7;;
75342;SDS011;63936;51.006;13.764;2022-10-01T06:10:05;11;;;6;;
75342;SDS011;63936;51.006;13.764;2022-10-01T06:12:03;11;;;7;;
75342;SDS011;63936;51.006;13.764;2022-10-01T06:14:02;12;;;7;;
75342;SDS011;63936;51.006;13.764;2022-10-01T06:16:04;11;;;8;;
75342;SDS011;63936;51.006;13.764;2022-10-01T06:18:02;10;;;6;;
75342;SDS011;63936;51.006;13.764;2022-10-01T06:20:05;11;;;6;;
75342;SDS011;63936;51.006;13.764;2022-10-01T06:22:03;14;;;7;;
75342;SDS011;63936;51.006;13.764;2022-10-01T06:24:02;12;;;7;;
75342;SDS011;63936;51.006;13.764;2022-10-01T06:26:03;11;;;7;;
75342;SDS011;63936;51.006;13.764;2022-10-01T06:28:03;11;;;6;;
75342;SDS011;63936;51.006;13.764;2022-10-01T06:30:05;12;;;7;;
75342;SDS011;63936;51.006;13.764;2022-10-01T06:32:04;11;;;7;;
75342;SDS011;63936;51.006;13.764;2022-10-01T06:34:02;11;;;7;;
75342;SDS011;63936;51.006;13.764;2022-10-01T06:36:03;12;;;7;;
75342;SDS011;63936;51.006;13.764;2022-10-01T06:38:03;10;;;6;;
75342;SDS011;63936;51.006;13.764;2022-10-01T06:40:05;12;;;7;;
75342;SDS011;63936;51.006;13.764;2022-10-01T06:42:03;13;;;7;;
75342;SDS011;63936;51.006;13.764;2022-10-01T06:44:02;12;;;8;;
75342;SDS011;63936;51.006;13.764;2022-10-01T06:46:03;11;;;7;;
75342;SDS011;63936;51.006;13.764;2022-10-01T06:48:02;11;;;7;;
75342;SDS011;63936;51.006;13.764;2022-10-01T06:50:05;10;;;6;;
75342;SDS011;63936;51.006;13.764;2022-10-01T06:52:03;11;;;6;;
75342;SDS011;63936;51.006;13.764;2022-10-01T06:54:02;11;;;7;;
75342;SDS011;63936;51.006;13.764;2022-10-01T06:56:03;12;;;7;;
75342;SDS011;63936;51.006;13.764;2022-10-01T06:58:03;12;;;7;;
75342;SDS011;63936;51.006;13.764;2022-10-01T07:00:05;13;;;8;;
75342;SDS011;63936;51.006;13.764;2022-10-01T07:02:02;12;;;8;;
75342;SDS011;63936;51.006;13.764;2022-10-01T07:04:01;12;;;8;;
75342;SDS011;63936;51.006;13.764;2022-10-01T07:06:02;12;;;8;;
75342;SDS011;63936;51.006;13.764;2022-10-01T07:08:02;12;;;8;;
75342;SDS011;63936;51.006;13.764;2022-10-01T07:10:02;12;;;8;;
75342;SDS011;63936;51.006;13.764;2022-10-01T07:12:02;13;;;8;;
75342;SDS011;63936;51.006;13.764;2022-10-01T07:14:01;14;;;7;;
75342;SDS011;63936;51.006;13.764;2022-10-01T07:16:01;14;;;8;;
75342;SDS011;63936;51.006;13.764;2022-10-01T07:18:02;14;;;8;;
75342;SDS011;63936;51.006;13.764;2022-10-01T07:20:01;13;;;8;;
75342;SDS011;63936;51.006;13.764;2022-10-01T07:22:01;11;;;7;;
75342;SDS011;63936;51.006;13.764;2022-10-01T07:24:01;13;;;8;;
75342;SDS011;63936;51.006;13.764;2022-10-01T07:26:02;13;;;9;;
75342;SDS011;63936;51.006;13.764;2022-10-01T07:28:02;12;;;8;;
75342;SDS011;63936;51.006;13.764;2022-10-01T07:30:02;13;;;8;;
75342;SDS011;63936;51.006;13.764;2022-10-01T07:32:02;14;;;10;;
75342;SDS011;63936;51.006;13.764;2022-10-01T07:34:02;13;;;9;;
75342;SDS011;63936;51.006;13.764;2022-10-01T07:36:02;13;;;8;;
75342;SDS011;63936;51.006;13.764;2022-10-01T07:38:02;13;;;8;;
75342;SDS011;63936;51.006;13.764;2022-10-01T07:40:02;13;;;8;;
75342;SDS011;63936;51.006;13.764;2022-10-01T07:42:02;11;;;7;;
75342;SDS011;63936;51.006;13.764;2022-10-01T07:44:02;12;;;9;;
75342;SDS011;63936;51.006;13.764;2022-10-01T07:46:02;14;;;9;;
75342;SDS011;63936;51.006;13.764;2022-10-01T07:48:01;13;;;9;;
75342;SDS011;63936;51.006;13.764;2022-10-01T07:50:03;11;;;8;;
75342;SDS011;63936;51.006;13.764;2022-10-01T07:52:02;11;;;8;;
75342;SDS011;63936;51.006;13.764;2022-10-01T07:54:02;15;;;7;;
75342;SDS011;63936;51.006;13.764;2022-10-01T07:56:01;14;;;7;;
75342;SDS011;63936;51.006;13.764;2022-10-01T07:58:01;12;;;8;;
75342;SDS011;63936;51.006;13.764;2022-10-01T08:00:02;11;;;7;;
75342;SDS011;63936;51.006;13.764;2022-10-01T08:02:01;10;;;7;;
75342;SDS011;63936;51.006;13.764;2022-10-01T08:04:01;10;;;7;;
75342;SDS011;63936;51.006;13.764;2022-10-01T08:06:01;11;;;7;;
75342;SDS011;63936;51.006;13.764;2022-10-01T08:08:02;11;;;8;;
75342;SDS011;63936;51.006;13.764;2022-10-01T08:10:01;10;;;7;;
75342;SDS011;63936;51.006;13.764;2022-10-01T08:12:01;11;;;8;;
75342;SDS011;63936;51.006;13.764;2022-10-01T08:14:01;11;;;7;;
75342;SDS011;63936;51.006;13.764;2022-10-01T08:16:02;11;;;8;;
75342;SDS011;63936;51.006;13.764;2022-10-01T08:18:02;10;;;7;;
75342;SDS011;63936;51.006;13.764;2022-10-01T08:20:02;10;;;7;;
75342;SDS011;63936;51.006;13.764;2022-10-01T08:22:02;9;;;7;;
75342;SDS011;63936;51.006;13.764;2022-10-01T08:24:02;10;;;7;;
75342;SDS011;63936;51.006;13.764;2022-10-01T08:26:03;11;;;8;;
75342;SDS011;63936;51.006;13.764;2022-10-01T08:28:02;11;;;8;;
75342;SDS011;63936;51.006;13.764;2022-10-01T08:30:02;11;;;8;;
75342;SDS011;63936;51.006;13.764;2022-10-01T08:32:01;11;;;8;;
75342;SDS011;63936;51.006;13.764;2022-10-01T08:34:01;10;;;7;;
75342;SDS011;63936;51.006;13.764;2022-10-01T08:36:01;10;;;7;;
75342;SDS011;63936;51.006;13.764;2022-10-01T08:38:02;9;;;6;;
75342;SDS011;63936;51.006;13.764;2022-10-01T08:40:02;9;;;6;;
75342;SDS011;63936;51.006;13.764;2022-10-01T08:42:02;8;;;5;;
75342;SDS011;63936;51.006;13.764;2022-10-01T08:44:01;7;;;5;;
75342;SDS011;63936;51.006;13.764;2022-10-01T08:46:02;7;;;5;;
75342;SDS011;63936;51.006;13.764;2022-10-01T08:48:03;8;;;5;;
75342;SDS011;63936;51.006;13.764;2022-10-01T08:50:02;7;;;4;;
75342;SDS011;63936;51.006;13.764;2022-10-01T08:52:02;7;;;4;;
75342;SDS011;63936;51.006;13.764;2022-10-01T08:54:03;7;;;4;;
75342;SDS011;63936;51.006;13.764;2022-10-01T08:56:02;7;;;4;;
75342;SDS011;63936;51.006;13.764;2022-10-01T08:58:02;7;;;4;;
75342;SDS011;63936;51.006;13.764;2022-10-01T09:00:03;7;;;4;;
75342;SDS011;63936;51.006;13.764;2022-10-01T09:02:01;7;;;4;;
75342;SDS011;63936;51.006;13.764;2022-10-01T09:04:01;7;;;4;;
75342;SDS011;63936;51.006;13.764;2022-10-01T09:06:04;7;;;5;;
75342;SDS011;63936;51.006;13.764;2022-10-01T09:08:05;8;;;5;;
75342;SDS011;63936;51.006;13.764;2022-10-01T09:10:05;8;;;5;;
75342;SDS011;63936;51.006;13.764;2022-10-01T09:12:04;9;;;6;;
75342;SDS011;63936;51.006;13.764;2022-10-01T09:14:06;9;;;6;;
75342;SDS011;63936;51.006;13.764;2022-10-01T09:16:02;8;;;5;;
75342;SDS011;63936;51.006;13.764;2022-10-01T09:18:04;8;;;5;;
75342;SDS011;63936;51.006;13.764;2022-10-01T09:20:04;8;;;5;;
75342;SDS011;63936;51.006;13.764;2022-10-01T09:22:03;5;;;3;;
75342;SDS011;63936;51.006;13.764;2022-10-01T09:24:02;5;;;2;;
75342;SDS011;63936;51.006;13.764;2022-10-01T09:26:02;5;;;2;;
75342;SDS011;63936;51.006;13.764;2022-10-01T09:28:06;6;;;2;;
75342;SDS011;63936;51.006;13.764;2022-10-01T09:30:03;5;;;2;;
75342;SDS011;63936;51.006;13.764;2022-10-01T09:32:01;5;;;2;;
75342;SDS011;63936;51.006;13.764;2022-10-01T09:34:02;7;;;2;;
75342;SDS011;63936;51.006;13.764;2022-10-01T09:36:04;6;;;2;;
75342;SDS011;63936;51.006;13.764;2022-10-01T09:38:02;5;;;2;;
75342;SDS011;63936;51.006;13.764;2022-10-01T09:40:04;5;;;2;;
75342;SDS011;63936;51.006;13.764;2022-10-01T09:42:02;6;;;2;;
75342;SDS011;63936;51.006;13.764;2022-10-01T09:44:02;5;;;2;;
75342;SDS011;63936;51.006;13.764;2022-10-01T09:46:01;8;;;2;;
75342;SDS011;63936;51.006;13.764;2022-10-01T09:48:02;8;;;2;;
75342;SDS011;63936;51.006;13.764;2022-10-01T09:50:03;5;;;3;;
75342;SDS011;63936;51.006;13.764;2022-10-01T09:52:02;5;;;3;;
75342;SDS011;63936;51.006;13.764;2022-10-01T09:54:02;5;;;3;;
75342;SDS011;63936;51.006;13.764;2022-10-01T09:56:03;5;;;3;;
75342;SDS011;63936;51.006;13.764;2022-10-01T09:58:03;5;;;2;;
75342;SDS011;63936;51.006;13.764;2022-10-01T10:00:04;6;;;3;;
75342;SDS011;63936;51.006;13.764;2022-10-01T10:02:01;7;;;3;;
75342;SDS011;63936;51.006;13.764;2022-10-01T10:04:01;7;;;3;;
75342;SDS011;63936;51.006;13.764;2022-10-01T10:06:01;5;;;3;;
75342;SDS011;63936;51.006;13.764;2022-10-01T10:08:02;5;;;3;;
75342;SDS011;63936;51.006;13.764;2022-10-01T10:10:10;5;;;2;;
75342;SDS011;63936;51.006;13.764;2022-10-01T10:12:02;6;;;2;;
75342;SDS011;63936;51.006;13.764;2022-10-01T10:14:02;6;;;3;;
75342;SDS011;63936;51.006;13.764;2022-10-01T10:16:08;6;;;2;;
75342;SDS011;63936;51.006;13.764;2022-10-01T10:18:04;5;;;2;;
75342;SDS011;63936;51.006;13.764;2022-10-01T10:20:06;5;;;2;;
75342;SDS011;63936;51.006;13.764;2022-10-01T10:22:09;6;;;3;;
75342;SDS011;63936;51.006;13.764;2022-10-01T10:24:03;5;;;2;;
75342;SDS011;63936;51.006;13.764;2022-10-01T10:26:02;5;;;2;;
75342;SDS011;63936;51.006;13.764;2022-10-01T10:28:02;6;;;2;;
75342;SDS011;63936;51.006;13.764;2022-10-01T10:30:04;5;;;2;;
75342;SDS011;63936;51.006;13.764;2022-10-01T10:32:03;6;;;3;;
75342;SDS011;63936;51.006;13.764;2022-10-01T10:34:04;5;;;2;;
75342;SDS011;63936;51.006;13.764;2022-10-01T10:36:02;5;;;2;;
75342;SDS011;63936;51.006;13.764;2022-10-01T10:38:02;6;;;2;;
75342;SDS011;63936;51.006;13.764;2022-10-01T10:40:02;5;;;2;;
75342;SDS011;63936;51.006;13.764;2022-10-01T10:42:01;6;;;2;;
75342;SDS011;63936;51.006;13.764;2022-10-01T10:44:02;8;;;3;;
75342;SDS011;63936;51.006;13.764;2022-10-01T10:46:02;5;;;2;;
75342;SDS011;63936;51.006;13.764;2022-10-01T10:48:02;5;;;2;;
75342;SDS011;63936;51.006;13.764;2022-10-01T10:50:03;5;;;2;;
75342;SDS011;63936;51.006;13.764;2022-10-01T10:52:01;6;;;2;;
75342;SDS011;63936;51.006;13.764;2022-10-01T10:54:01;6;;;3;;
75342;SDS011;63936;51.006;13.764;2022-10-01T10:56:02;6;;;3;;
75342;SDS011;63936;51.006;13.764;2022-10-01T10:58:09;6;;;3;;
75342;SDS011;63936;51.006;13.764;2022-10-01T11:00:04;6;;;3;;
75342;SDS011;63936;51.006;13.764;2022-10-01T11:02:03;5;;;3;;
75342;SDS011;63936;51.006;13.764;2022-10-01T11:04:01;5;;;3;;
75342;SDS011;63936;51.006;13.764;2022-10-01T11:06:03;6;;;3;;
75342;SDS011;63936;51.006;13.764;2022-10-01T11:08:03;6;;;3;;
75342;SDS011;63936;51.006;13.764;2022-10-01T11:10:06;6;;;3;;
75342;SDS011;63936;51.006;13.764;2022-10-01T11:12:04;6;;;3;;
75342;SDS011;63936;51.006;13.764;2022-10-01T11:14:05;7;;;3;;
75342;SDS011;63936;51.006;13.764;2022-10-01T11:16:07;6;;;3;;
75342;SDS011;63936;51.006;13.764;2022-10-01T11:18:14;7;;;3;;
75342;SDS011;63936;51.006;13.764;2022-10-01T11:20:06;6;;;3;;
75342;SDS011;63936;51.006;13.764;2022-10-01T11:22:05;6;;;3;;
75342;SDS011;63936;51.006;13.764;2022-10-01T11:24:12;7;;;3;;
75342;SDS011;63936;51.006;13.764;2022-10-01T11:26:04;6;;;3;;
75342;SDS011;63936;51.006;13.764;2022-10-01T11:28:05;7;;;3;;
75342;SDS011;63936;51.006;13.764;2022-10-01T11:30:03;7;;;3;;
75342;SDS011;63936;51.006;13.764;2022-10-01T11:32:04;6;;;3;;
75342;SDS011;63936;51.006;13.764;2022-10-01T11:34:08;6;;;3;;
75342;SDS011;63936;51.006;13.764;2022-10-01T11:36:02;6;;;3;;
75342;SDS011;63936;51.006;13.764;2022-10-01T11:38:19;7;;;3;;
75342;SDS011;63936;51.006;13.764;2022-10-01T11:40:03;6;;;3;;
75342;SDS011;63936;51.006;13.764;2022-10-01T11:42:03;6;;;3;;
75342;SDS011;63936;51.006;13.764;2022-10-01T11:44:03;9;;;3;;
75342;SDS011;63936;51.006;13.764;2022-10-01T11:46:02;5;;;2;;
75342;SDS011;63936;51.006;13.764;2022-10-01T11:48:03;5;;;2;;
75342;SDS011;63936;51.006;13.764;2022-10-01T11:50:02;6;;;2;;
75342;SDS011;63936;51.006;13.764;2022-10-01T11:52:03;5;;;3;;
75342;SDS011;63936;51.006;13.764;2022-10-01T11:54:02;5;;;3;;
75342;SDS011;63936;51.006;13.764;2022-10-01T11:56:02;6;;;3;;
75342;SDS011;63936;51.006;13.764;2022-10-01T11:58:04;6;;;3;;
75342;SDS011;63936;51.006;13.764;2022-10-01T12:00:04;6;;;3;;
75342;SDS011;63936;51.006;13.764;2022-10-01T12:02:04;8;;;3;;
75342;SDS011;63936;51.006;13.764;2022-10-01T12:04:05;7;;;3;;
75342;SDS011;63936;51.006;13.764;2022-10-01T12:06:01;5;;;2;;
75342;SDS011;63936;51.006;13.764;2022-10-01T12:08:02;5;;;2;;
75342;SDS011;63936;51.006;13.764;2022-10-01T12:10:04;5;;;2;;
75342;SDS011;63936;51.006;13.764;2022-10-01T12:12:03;5;;;2;;
75342;SDS011;63936;51.006;13.764;2022-10-01T12:14:03;5;;;2;;
75342;SDS011;63936;51.006;13.764;2022-10-01T12:16:04;5;;;2;;
75342;SDS011;63936;51.006;13.764;2022-10-01T12:18:03;6;;;2;;
75342;SDS011;63936;51.006;13.764;2022-10-01T12:20:02;5;;;2;;
75342;SDS011;63936;51.006;13.764;2022-10-01T12:22:02;5;;;2;;
75342;SDS011;63936;51.006;13.764;2022-10-01T12:24:02;5;;;2;;
75342;SDS011;63936;51.006;13.764;2022-10-01T12:26:03;6;;;2;;
75342;SDS011;63936;51.006;13.764;2022-10-01T12:28:03;6;;;2;;
75342;SDS011;63936;51.006;13.764;2022-10-01T12:30:04;4;;;1;;
75342;SDS011;63936;51.006;13.764;2022-10-01T12:32:03;4;;;2;;
75342;SDS011;63936;51.006;13.764;2022-10-01T12:34:04;4;;;1;;
75342;SDS011;63936;51.006;13.764;2022-10-01T12:36:03;4;;;1;;
75342;SDS011;63936;51.006;13.764;2022-10-01T12:38:06;5;;;2;;
75342;SDS011;63936;51.006;13.764;2022-10-01T12:40:05;5;;;2;;
75342;SDS011;63936;51.006;13.764;2022-10-01T12:42:06;4;;;1;;
75342;SDS011;63936;51.006;13.764;2022-10-01T12:44:05;4;;;1;;
75342;SDS011;63936;51.006;13.764;2022-10-01T12:46:02;4;;;1;;
75342;SDS011;63936;51.006;13.764;2022-10-01T12:48:02;4;;;1;;
75342;SDS011;63936;51.006;13.764;2022-10-01T12:50:04;4;;;1;;
75342;SDS011;63936;51.006;13.764;2022-10-01T12:52:03;4;;;1;;
75342;SDS011;63936;51.006;13.764;2022-10-01T12:54:02;4;;;1;;
75342;SDS011;63936;51.006;13.764;2022-10-01T12:56:06;4;;;1;;